Time;durP1;ratioP1;P1;durP2;ratioP2;P2;SDS_P1;SDS_P2;PMS_P1;PMS_P2;Temp;Humidity;BMP_temperature;BMP_pressure;BME280_temperature;BME280_humidity;BME280_pressure;Samples;Min_cycle;Max_cycle;Signal;HPM_P1;HPM_P2
2021/10/07 03:30:58;;;;;;;3.60;2.20;;;;;;;16.61;57.55;99580.69;8047575;23;20239;-81
2021/10/07 03:34:19;;;;;;;4.10;2.63;;;;;;;16.50;57.14;99555.06;6795892;29;20218;-80
2021/10/07 03:37:41;;;;;;;4.73;2.60;;;;;;;16.28;58.17;99580.16;6787821;29;20203;-78
2021/10/07 03:41:03;;;;;;;4.30;2.63;;;;;;;16.28;58.39;99577.44;6781707;29;20238;-79
2021/10/07 03:44:24;;;;;;;7.03;4.30;;;;;;;16.34;58.00;99571.09;6784183;29;20306;-78
2021/10/07 03:47:47;;;;;;;3.87;3.10;;;;;;;16.51;57.88;99581.22;6802477;29;20222;-79
2021/10/07 03:51:09;;;;;;;3.73;3.40;;;;;;;16.73;56.91;99582.47;6802783;29;20683;-79
2021/10/07 03:54:30;;;;;;;3.70;2.70;;;;;;;16.50;57.64;99582.28;6812156;29;20300;-79
2021/10/07 03:57:52;;;;;;;3.93;2.53;;;;;;;16.46;57.63;99580.25;6812590;29;20212;-79
2021/10/07 04:01:14;;;;;;;2.83;2.40;;;;;;;16.42;58.40;99603.50;6812583;29;20269;-79
2021/10/07 04:04:37;;;;;;;2.63;2.43;;;;;;;16.23;59.28;99599.03;6812188;29;20211;-78
2021/10/07 04:07:58;;;;;;;3.30;2.47;;;;;;;16.55;58.29;99593.34;6813628;29;20226;-78
2021/10/07 04:11:20;;;;;;;3.03;2.70;;;;;;;16.64;57.87;99596.59;6812679;29;20238;-77
2021/10/07 04:14:42;;;;;;;4.17;2.40;;;;;;;16.66;57.89;99603.50;6806470;29;20209;-78
2021/10/07 04:18:04;;;;;;;3.07;2.67;;;;;;;16.61;58.05;99605.19;6814929;29;20218;-78
2021/10/07 04:21:27;;;;;;;3.37;2.70;;;;;;;16.32;58.45;99584.94;6802250;29;20230;-77
2021/10/07 04:24:48;;;;;;;4.23;3.23;;;;;;;16.40;58.77;99598.28;6799067;29;20294;-77
2021/10/07 04:28:10;;;;;;;6.80;6.03;;;;;;;16.64;58.04;99607.50;6811256;29;20671;-77
2021/10/07 04:31:32;;;;;;;12.53;9.17;;;;;;;16.52;58.52;99603.84;6804970;29;20239;-79
2021/10/07 04:34:53;;;;;;;4.43;3.70;;;;;;;16.51;57.85;99588.56;6810369;29;20255;-79
2021/10/07 04:38:16;;;;;;;5.20;3.50;;;;;;;16.60;57.87;99615.28;6812171;29;20293;-78
2021/10/07 04:41:38;;;;;;;3.20;2.90;;;;;;;16.72;57.02;99608.03;6794629;29;20238;-80
2021/10/07 04:44:59;;;;;;;4.70;2.63;;;;;;;16.44;57.62;99615.84;6808815;29;20208;-79
2021/10/07 04:48:21;;;;;;;3.87;2.90;;;;;;;16.37;58.17;99628.66;6811862;29;20244;-79
2021/10/07 04:51:43;;;;;;;4.07;2.77;;;;;;;16.30;58.84;99625.16;6788356;29;20333;-80
2021/10/07 04:55:07;;;;;;;3.87;2.57;;;;;;;16.50;58.04;99633.16;6790139;29;20300;-77
2021/10/07 04:58:29;;;;;;;4.47;2.80;;;;;;;16.25;57.95;99640.47;6790472;29;20280;-79
2021/10/07 05:01:50;;;;;;;4.47;2.90;;;;;;;16.37;58.43;99636.81;6789677;29;20275;-79
2021/10/07 05:05:12;;;;;;;3.00;2.70;;;;;;;16.23;58.47;99604.47;6791133;29;20293;-79
2021/10/07 05:08:33;;;;;;;2.77;2.57;;;;;;;16.35;58.68;99629.91;6790169;29;20613;-78
2021/10/07 05:11:56;;;;;;;2.70;2.50;;;;;;;16.62;58.04;99640.38;6801596;29;20231;-79
2021/10/07 05:15:21;;;;;;;4.73;3.60;;;;;;;16.49;58.58;99643.22;6814727;29;20215;-78
2021/10/07 05:18:43;;;;;;;3.43;2.83;;;;;;;16.31;59.41;99651.31;6815748;29;20213;-78
2021/10/07 05:22:05;;;;;;;6.53;5.43;;;;;;;16.40;58.98;99657.34;6815619;29;20237;-79
2021/10/07 05:25:27;;;;;;;6.73;3.50;;;;;;;16.47;58.85;99653.53;6816800;29;20229;-78
2021/10/07 05:28:50;;;;;;;3.80;3.07;;;;;;;16.43;59.11;99659.59;6816764;29;20219;-79
2021/10/07 05:32:11;;;;;;;7.10;3.10;;;;;;;16.38;59.34;99667.56;6815234;29;20242;-79
2021/10/07 05:35:33;;;;;;;5.07;2.70;;;;;;;16.60;58.69;99672.47;6817034;29;20225;-79
2021/10/07 05:38:54;;;;;;;3.87;2.70;;;;;;;16.35;59.09;99671.56;6816118;29;20558;-78
2021/10/07 05:42:16;;;;;;;4.33;2.87;;;;;;;15.88;60.18;99674.84;6815890;29;20234;-79
2021/10/07 05:45:39;;;;;;;5.33;2.80;;;;;;;15.81;60.49;99654.97;6815828;29;20215;-79
2021/10/07 05:49:01;;;;;;;4.40;2.90;;;;;;;15.97;60.98;99680.81;6815963;29;20675;-78
2021/10/07 05:52:22;;;;;;;4.40;3.10;;;;;;;15.71;60.80;99680.97;6815492;29;20235;-80
2021/10/07 05:55:44;;;;;;;5.93;2.90;;;;;;;16.07;60.61;99659.44;6815762;29;20215;-79
2021/10/07 05:59:05;;;;;;;3.47;2.70;;;;;;;15.98;60.88;99677.09;6815945;29;20217;-79
2021/10/07 06:02:28;;;;;;;3.37;2.87;;;;;;;16.05;60.00;99692.28;6814905;29;20232;-79
2021/10/07 06:05:50;;;;;;;3.93;2.80;;;;;;;16.19;60.36;99691.16;6816276;29;20214;-78
2021/10/07 06:09:12;;;;;;;6.00;3.10;;;;;;;16.32;59.56;99680.19;6815776;29;20221;-79
2021/10/07 06:12:33;;;;;;;3.40;3.13;;;;;;;16.22;59.66;99696.16;6809772;29;20234;-79
2021/10/07 06:15:55;;;;;;;3.53;2.60;;;;;;;15.92;60.24;99695.09;6816299;29;20211;-78
2021/10/07 06:19:18;;;;;;;2.83;2.60;;;;;;;16.25;60.03;99705.78;6814365;29;20590;-79
2021/10/07 06:22:39;;;;;;;6.80;2.80;;;;;;;16.37;59.83;99707.59;6814436;29;20226;-79
2021/10/07 06:26:01;;;;;;;5.43;2.90;;;;;;;16.48;59.68;99709.63;6815107;29;20672;-79
2021/10/07 06:29:22;;;;;;;6.03;4.53;;;;;;;16.56;59.28;99706.63;6816047;29;20708;-78
2021/10/07 06:32:44;;;;;;;2.67;2.47;;;;;;;16.44;58.63;99666.72;6812754;29;20240;-81
2021/10/07 06:36:07;;;;;;;5.67;2.73;;;;;;;16.70;58.99;99710.09;6813753;29;20207;-79
2021/10/07 06:39:29;;;;;;;3.00;2.67;;;;;;;16.80;58.69;99713.16;6813793;29;20213;-78
2021/10/07 06:42:50;;;;;;;4.17;2.70;;;;;;;16.70;58.39;99704.63;6813677;29;20227;-79
2021/10/07 06:46:12;;;;;;;3.57;3.10;;;;;;;16.87;58.04;99711.19;6812370;29;20666;-79
2021/10/07 06:49:34;;;;;;;3.77;2.77;;;;;;;16.91;57.76;99710.50;6812906;29;20222;-79
2021/10/07 06:52:57;;;;;;;3.93;3.17;;;;;;;16.65;58.00;99693.56;6811598;29;20270;-79
2021/10/07 06:56:20;;;;;;;3.57;3.20;;;;;;;16.90;57.51;99717.03;6812302;29;20216;-80
2021/10/07 06:59:43;;;;;;;3.43;3.03;;;;;;;16.84;57.98;99723.38;6812458;29;20563;-79
2021/10/07 07:03:06;;;;;;;4.67;3.40;;;;;;;16.67;58.31;99714.06;6813733;29;20239;-79
2021/10/07 07:06:28;;;;;;;5.23;3.93;;;;;;;16.20;58.67;99618.50;6813536;29;20625;-79
2021/10/07 07:09:51;;;;;;;4.67;3.50;;;;;;;16.98;57.78;99730.34;6812666;29;20282;-78
2021/10/07 07:13:13;;;;;;;4.23;3.03;;;;;;;16.55;58.48;99698.66;6812225;29;20248;-80
2021/10/07 07:16:35;;;;;;;5.00;3.27;;;;;;;16.65;59.41;99701.75;6815938;29;20668;-79
2021/10/07 07:19:58;;;;;;;5.07;3.27;;;;;;;17.10;58.22;99742.19;6816450;29;20216;-79
2021/10/07 07:23:19;;;;;;;7.60;3.23;;;;;;;17.09;57.71;99732.34;6814422;29;20712;-80
2021/10/07 07:26:43;;;;;;;4.90;3.03;;;;;;;17.24;57.62;99727.38;6818096;29;20211;-79
2021/10/07 07:30:06;;;;;;;6.23;3.10;;;;;;;17.25;56.74;99733.66;6815708;29;20216;-78
2021/10/07 07:33:28;;;;;;;4.23;3.80;;;;;;;17.31;56.10;99743.66;6812254;29;20656;-80
2021/10/07 07:36:50;;;;;;;3.63;2.67;;;;;;;17.59;55.32;99741.28;6802601;29;20211;-79
2021/10/07 07:40:12;;;;;;;5.60;3.33;;;;;;;17.19;55.68;99726.38;6814289;29;20212;-79
2021/10/07 07:43:35;;;;;;;4.53;3.20;;;;;;;17.30;56.35;99736.53;6813655;29;20212;-80
2021/10/07 07:46:57;;;;;;;4.60;3.17;;;;;;;16.64;55.79;99646.44;6813895;29;20211;-80
2021/10/07 07:50:21;;;;;;;5.00;3.47;;;;;;;17.56;55.41;99749.91;6816805;29;20202;-80
2021/10/07 07:53:43;;;;;;;3.63;2.80;;;;;;;17.55;54.58;99751.81;6815515;29;20207;-79
2021/10/07 07:57:04;;;;;;;5.07;3.40;;;;;;;17.70;54.76;99754.19;6816423;29;20230;-79
2021/10/07 08:00:27;;;;;;;6.80;4.37;;;;;;;17.55;54.38;99756.44;6815219;29;20212;-79
2021/10/07 08:03:49;;;;;;;6.13;4.80;;;;;;;17.04;54.57;99761.34;6815997;29;20716;-80
2021/10/07 08:07:13;;;;;;;5.10;4.20;;;;;;;16.80;56.66;99767.63;6815858;29;20212;-80
2021/10/07 08:10:35;;;;;;;6.07;4.00;;;;;;;17.58;55.06;99754.06;6812945;29;20236;-79
2021/10/07 08:13:58;;;;;;;7.20;4.73;;;;;;;17.62;54.52;99747.13;6816116;29;20219;-79
2021/10/07 08:17:21;;;;;;;8.13;5.80;;;;;;;17.66;54.56;99756.53;6817246;29;20285;-80
2021/10/07 08:20:43;;;;;;;6.10;5.50;;;;;;;17.94;54.37;99751.38;6815721;29;20224;-79
2021/10/07 08:24:08;;;;;;;7.13;5.87;;;;;;;17.89;54.15;99767.59;6818004;29;20216;-79
2021/10/07 08:27:30;;;;;;;6.40;5.80;;;;;;;18.44;53.53;99771.06;6817063;29;20201;-80
2021/10/07 08:30:52;;;;;;;8.47;5.60;;;;;;;17.92;53.35;99763.56;6816332;29;20236;-80
2021/10/07 08:34:15;;;;;;;9.27;5.70;;;;;;;17.65;54.17;99768.50;6801889;29;20213;-81
2021/10/07 08:37:38;;;;;;;10.13;6.57;;;;;;;17.26;54.57;99777.06;6791588;29;20221;-81
2021/10/07 08:41:00;;;;;;;6.80;6.10;;;;;;;18.16;53.72;99779.00;6796349;29;20253;-78
2021/10/07 08:44:22;;;;;;;7.40;6.80;;;;;;;18.17;53.11;99780.66;6817918;29;20224;-81
2021/10/07 08:47:45;;;;;;;7.73;6.93;;;;;;;17.69;53.10;99733.41;6813708;29;20208;-79
2021/10/07 08:51:08;;;;;;;9.57;6.60;;;;;;;18.11;52.86;99770.66;6812313;29;20605;-78
2021/10/07 08:54:33;;;;;;;11.07;7.93;;;;;;;17.71;52.60;99764.03;6811821;29;20223;-77
2021/10/07 08:57:55;;;;;;;7.93;6.57;;;;;;;18.52;52.38;99796.16;6811035;29;20205;-78
2021/10/07 09:01:37;;;;;;;7.67;6.53;;;;;;;18.69;51.63;99790.88;6811342;29;20235;-78
2021/10/07 09:05:07;;;;;;;6.43;5.93;;;;;;;18.86;51.06;99789.13;6816377;29;20214;-78
2021/10/07 09:08:30;;;;;;;7.43;6.53;;;;;;;18.64;50.50;99796.19;6810904;29;20711;-78
2021/10/07 09:11:53;;;;;;;8.17;5.73;;;;;;;19.00;49.42;99776.91;6810380;29;20238;-77
2021/10/07 09:15:15;;;;;;;8.33;5.60;;;;;;;18.87;49.34;99788.06;6808914;29;20701;-77
2021/10/07 09:18:36;;;;;;;6.47;4.83;;;;;;;18.47;50.48;99787.84;6811001;29;20221;-77
2021/10/07 09:22:00;;;;;;;6.80;5.77;;;;;;;18.86;50.86;99786.41;6810026;29;20244;-77
2021/10/07 09:25:23;;;;;;;5.80;5.20;;;;;;;17.23;53.20;99785.66;6811042;29;20216;-77
2021/10/07 09:28:51;;;;;;;4.70;4.20;;;;;;;17.89;51.62;99786.69;6810515;29;20222;-77
2021/10/07 09:32:13;;;;;;;4.00;3.60;;;;;;;18.18;49.54;99783.16;6809252;29;20237;-78
2021/10/07 09:35:36;;;;;;;6.93;4.43;;;;;;;18.70;49.17;99793.34;6809478;29;20216;-78
2021/10/07 09:38:59;;;;;;;4.07;3.53;;;;;;;18.53;48.99;99797.84;6809825;29;20220;-77
2021/10/07 09:42:26;;;;;;;5.00;4.30;;;;;;;18.54;49.35;99791.31;6790795;29;20243;-77
2021/10/07 09:45:48;;;;;;;5.53;3.47;;;;;;;19.13;48.93;99788.47;6783422;29;20443;-77
2021/10/07 09:49:10;;;;;;;7.47;3.47;;;;;;;19.19;48.10;99748.41;6783457;29;20672;-78
2021/10/07 09:52:36;;;;;;;8.40;3.87;;;;;;;19.40;48.58;99788.88;6782930;29;20371;-77
2021/10/07 09:55:57;;;;;;;5.30;4.07;;;;;;;19.48;48.57;99775.66;6783577;29;20580;-77
2021/10/07 09:59:21;;;;;;;5.57;4.10;;;;;;;19.55;48.59;99767.31;6783150;29;20213;-77
2021/10/07 10:02:42;;;;;;;4.17;3.03;;;;;;;19.82;48.18;99772.03;6782286;29;20238;-77
2021/10/07 10:06:05;;;;;;;4.37;3.50;;;;;;;19.90;47.65;99759.88;6784547;29;20215;-79
2021/10/07 10:09:28;;;;;;;4.40;2.90;;;;;;;20.47;46.07;99764.38;6806197;29;20211;-78
2021/10/07 10:12:50;;;;;;;3.00;2.80;;;;;;;20.20;46.34;99753.16;6807883;29;20695;-77
2021/10/07 10:16:13;;;;;;;3.10;2.90;;;;;;;19.95;46.35;99771.78;6808951;29;20587;-78
2021/10/07 10:19:34;;;;;;;3.70;3.40;;;;;;;19.62;47.41;99777.06;6809056;29;20214;-79
2021/10/07 10:22:59;;;;;;;3.80;3.50;;;;;;;19.33;48.02;99775.31;6808043;29;20223;-76
2021/10/07 10:26:20;;;;;;;4.20;3.80;;;;;;;19.35;48.33;99772.34;6809692;29;20234;-79
2021/10/07 10:29:42;;;;;;;3.73;3.17;;;;;;;19.62;47.76;99778.97;6808848;29;20211;-77
2021/10/07 10:33:05;;;;;;;12.40;5.43;;;;;;;20.13;46.20;99773.53;6808681;29;20226;-79
2021/10/07 10:36:32;;;;;;;2.80;2.50;;;;;;;19.32;46.33;99770.91;6799423;29;20213;-77
2021/10/07 10:39:53;;;;;;;2.70;2.50;;;;;;;19.85;47.08;99774.31;6782257;29;20246;-79
2021/10/07 10:43:34;;;;;;;2.37;2.17;;;;;;;19.30;45.83;99789.47;6800914;29;20713;-77
2021/10/07 10:46:59;;;;;;;3.07;2.60;;;;;;;19.82;45.48;99777.50;6807833;29;20277;-77
2021/10/07 10:50:25;;;;;;;4.10;2.83;;;;;;;19.86;45.54;99786.91;6808800;29;20217;-78
2021/10/07 10:53:49;;;;;;;3.47;2.60;;;;;;;19.07;45.20;99731.16;6796130;29;20622;-80
2021/10/07 10:57:26;;;;;;;3.70;2.50;;;;;;;18.33;47.40;99797.25;6808581;29;20210;-81
2021/10/07 11:00:48;;;;;;;2.80;2.60;;;;;;;18.31;48.17;99796.66;6810022;29;20738;-77
2021/10/07 11:04:10;;;;;;;3.23;2.67;;;;;;;18.47;47.51;99793.31;6810333;29;20667;-78
2021/10/07 11:07:35;;;;;;;3.57;2.47;;;;;;;19.21;47.44;99759.97;6808598;29;20209;-79
2021/10/07 11:10:58;;;;;;;4.10;3.40;;;;;;;18.36;48.41;99801.44;6810489;29;20233;-81
2021/10/07 11:14:23;;;;;;;3.23;2.93;;;;;;;18.84;49.32;99786.63;6807902;29;20698;-79
2021/10/07 11:17:46;;;;;;;3.97;3.60;;;;;;;19.11;47.40;99795.25;6808756;29;20211;-79
2021/10/07 11:21:12;;;;;;;3.63;3.20;;;;;;;19.89;45.95;99774.66;6808644;29;20627;-79
2021/10/07 11:24:35;;;;;;;3.67;2.80;;;;;;;19.11;47.79;99776.09;6808238;29;20564;-80
2021/10/07 11:27:57;;;;;;;3.90;3.00;;;;;;;18.09;49.97;99787.25;6808319;29;20754;-79
2021/10/07 11:31:20;;;;;;;3.83;3.40;;;;;;;18.49;48.20;99787.59;6807892;29;20294;-79
2021/10/07 11:34:43;;;;;;;2.87;2.57;;;;;;;19.32;47.07;99779.13;6803002;29;20560;-79
2021/10/07 11:38:12;;;;;;;4.27;3.87;;;;;;;19.12;47.12;99775.88;6807510;29;20209;-78
2021/10/07 11:41:35;;;;;;;4.13;3.73;;;;;;;18.64;47.60;99775.16;6808035;29;20277;-81
2021/10/07 11:44:57;;;;;;;3.57;3.00;;;;;;;19.47;46.76;99770.44;6809359;29;20209;-78
2021/10/07 11:48:19;;;;;;;5.83;3.80;;;;;;;20.12;45.19;99755.47;6808867;29;20753;-80
2021/10/07 11:51:41;;;;;;;3.63;3.33;;;;;;;20.34;45.18;99757.25;6807877;29;20244;-78
2021/10/07 11:55:03;;;;;;;4.23;3.10;;;;;;;20.23;45.78;99760.88;6808614;29;20706;-80
2021/10/07 11:58:27;;;;;;;3.23;2.77;;;;;;;19.83;45.53;99759.19;6811132;29;20667;-78
2021/10/07 12:01:49;;;;;;;3.97;2.90;;;;;;;19.54;45.27;99760.19;6813571;29;20222;-78
2021/10/07 12:05:17;;;;;;;3.00;2.70;;;;;;;20.42;43.63;99758.78;6814746;29;20218;-82
2021/10/07 12:08:40;;;;;;;3.73;2.90;;;;;;;19.99;45.48;99747.50;6813802;29;20227;-79
2021/10/07 12:12:04;;;;;;;2.77;2.57;;;;;;;20.53;44.49;99745.03;6813764;29;20249;-78
2021/10/07 12:15:28;;;;;;;3.47;2.60;;;;;;;19.97;45.70;99755.09;6814043;29;20234;-79
2021/10/07 12:18:51;;;;;;;2.90;2.50;;;;;;;20.50;45.40;99741.94;6807911;29;20246;-79
2021/10/07 12:22:26;;;;;;;3.97;2.87;;;;;;;21.22;44.10;99741.03;6812284;29;20257;-78
2021/10/07 12:25:54;;;;;;;3.43;2.90;;;;;;;20.59;43.85;99733.09;6813047;29;20187;-79
2021/10/07 12:29:17;;;;;;;2.57;2.33;;;;;;;20.34;44.72;99716.19;6813961;29;20190;-80
2021/10/07 12:32:40;;;;;;;2.57;2.27;;;;;;;19.45;44.03;99696.00;6815293;29;20230;-80
2021/10/07 12:36:05;;;;;;;2.07;1.83;;;;;;;19.29;44.17;99722.16;6815418;29;20301;-77
2021/10/07 12:39:30;;;;;;;1.93;1.80;;;;;;;19.15;44.35;99739.84;6812535;29;20214;-78
2021/10/07 12:42:51;;;;;;;2.87;1.90;;;;;;;19.07;44.88;99726.53;6810556;29;20230;-78
2021/10/07 12:46:18;;;;;;;2.10;2.00;;;;;;;19.97;44.79;99744.16;6812029;29;20229;-79
2021/10/07 12:49:43;;;;;;;2.20;2.00;;;;;;;20.03;44.08;99745.91;6812417;29;20221;-77
2021/10/07 12:53:05;;;;;;;3.90;2.30;;;;;;;19.73;46.26;99731.59;6811161;29;20243;-78
2021/10/07 12:56:30;;;;;;;2.63;2.43;;;;;;;19.56;46.17;99749.81;6812047;29;20207;-81
2021/10/07 12:59:55;;;;;;;3.00;2.47;;;;;;;19.52;46.36;99729.50;6812105;29;20769;-78
2021/10/07 13:03:20;;;;;;;2.40;2.20;;;;;;;19.16;46.00;99699.69;6803876;29;20721;-81
2021/10/07 13:06:44;;;;;;;2.57;2.37;;;;;;;20.48;44.72;99746.84;6811458;29;20214;-78
2021/10/07 13:10:07;;;;;;;2.50;2.33;;;;;;;20.46;44.17;99727.09;6810623;29;20214;-79
2021/10/07 13:13:28;;;;;;;3.73;2.40;;;;;;;19.52;44.73;99746.75;6810922;29;20246;-78
2021/10/07 13:16:50;;;;;;;2.53;1.80;;;;;;;20.25;43.88;99746.94;6812818;29;20230;-79
2021/10/07 13:20:12;;;;;;;4.17;2.67;;;;;;;19.95;44.21;99755.38;6812485;29;20210;-79
2021/10/07 13:23:35;;;;;;;2.90;2.60;;;;;;;18.71;46.78;99756.78;6811581;29;20241;-81
2021/10/07 13:27:02;;;;;;;3.37;2.57;;;;;;;19.60;46.42;99743.66;6813970;29;20210;-82
2021/10/07 13:30:23;;;;;;;2.97;2.60;;;;;;;20.11;44.14;99751.88;6801323;29;20199;-79
2021/10/07 13:33:45;;;;;;;4.27;2.33;;;;;;;21.12;43.49;99749.94;6810154;29;20576;-79
2021/10/07 13:37:07;;;;;;;2.77;2.57;;;;;;;20.76;42.58;99749.56;6811248;29;20664;-79
2021/10/07 13:40:30;;;;;;;2.53;2.33;;;;;;;20.45;43.87;99753.66;6812616;29;20253;-86
2021/10/07 13:47:28;;;;;;;3.40;2.63;;;;;;;20.16;43.27;99694.47;6792128;29;20337;-79
2021/10/07 13:50:49;;;;;;;2.20;2.10;;;;;;;20.86;41.72;99767.00;6808776;29;20675;-79
2021/10/07 13:54:11;;;;;;;2.87;2.17;;;;;;;20.35;42.79;99755.38;6808241;29;20230;-80
2021/10/07 13:57:34;;;;;;;2.77;2.20;;;;;;;20.87;40.96;99763.16;6809494;29;20206;-80
2021/10/07 14:00:56;;;;;;;2.10;1.90;;;;;;;20.20;43.13;99757.78;6810770;29;20325;-79
2021/10/07 14:04:17;;;;;;;2.60;2.23;;;;;;;19.94;43.29;99761.88;6810250;29;20207;-80
2021/10/07 14:07:39;;;;;;;1.90;1.80;;;;;;;19.44;43.77;99763.53;6809685;29;20276;-79
2021/10/07 14:11:05;;;;;;;2.10;1.90;;;;;;;18.99;44.08;99767.88;6810352;29;20235;-79
2021/10/07 14:14:28;;;;;;;2.80;2.20;;;;;;;19.31;43.85;99766.50;6809476;29;20667;-79
2021/10/07 14:17:50;;;;;;;3.07;1.77;;;;;;;19.99;41.65;99763.91;6810029;29;20213;-80
2021/10/07 14:21:13;;;;;;;2.30;2.10;;;;;;;19.87;42.77;99760.38;6809734;29;20233;-79
2021/10/07 14:24:35;;;;;;;2.30;2.10;;;;;;;19.74;42.74;99764.22;6815058;29;20183;-80
2021/10/07 14:28:00;;;;;;;2.10;1.97;;;;;;;19.65;43.50;99759.34;6827011;29;20848;-79
2021/10/07 14:31:25;;;;;;;3.17;2.70;;;;;;;19.49;43.66;99769.13;6803669;29;20241;-78
2021/10/07 14:34:47;;;;;;;2.90;2.57;;;;;;;19.81;43.13;99767.63;6808931;29;20234;-78
2021/10/07 14:38:09;;;;;;;2.50;2.23;;;;;;;20.27;43.18;99756.59;6810176;29;20214;-78
2021/10/07 14:41:30;;;;;;;3.03;2.63;;;;;;;20.08;43.41;99767.97;6808818;29;20222;-80
2021/10/07 14:44:52;;;;;;;3.17;2.93;;;;;;;20.33;42.53;99755.59;6808794;29;20206;-79
2021/10/07 14:48:15;;;;;;;3.80;2.20;;;;;;;20.03;43.31;99754.13;6809357;29;20210;-79
2021/10/07 14:51:36;;;;;;;4.63;2.10;;;;;;;20.27;43.19;99764.00;6808537;29;20227;-79
2021/10/07 14:54:58;;;;;;;5.77;2.37;;;;;;;20.68;42.10;99753.53;6809057;29;20230;-79
2021/10/07 14:58:21;;;;;;;3.83;2.03;;;;;;;20.71;42.28;99757.69;6808959;29;20210;-79
2021/10/07 15:01:45;;;;;;;2.57;2.37;;;;;;;20.95;40.81;99723.59;6808326;29;20559;-79
2021/10/07 15:05:09;;;;;;;4.43;2.60;;;;;;;20.47;41.83;99745.19;6809030;29;20210;-78
2021/10/07 15:08:31;;;;;;;2.50;2.23;;;;;;;20.23;43.39;99760.88;6808737;29;20213;-79
2021/10/07 15:11:53;;;;;;;2.80;2.60;;;;;;;20.56;43.33;99757.41;6807478;29;20222;-78
2021/10/07 15:15:14;;;;;;;2.50;2.30;;;;;;;20.78;42.92;99756.44;6808015;29;20226;-78
2021/10/07 15:18:36;;;;;;;2.87;2.30;;;;;;;20.97;42.12;99754.31;6803033;29;20209;-79
2021/10/07 15:21:59;;;;;;;3.33;2.40;;;;;;;20.72;42.48;99760.19;6799791;29;20233;-78
2021/10/07 15:25:21;;;;;;;1.77;1.60;;;;;;;20.49;42.00;99759.47;6807239;29;20301;-78
2021/10/07 15:28:45;;;;;;;2.23;2.00;;;;;;;20.57;40.45;99756.34;6809887;29;20202;-78
2021/10/07 15:32:07;;;;;;;3.17;1.93;;;;;;;20.33;41.74;99763.81;6807072;29;20237;-80
2021/10/07 15:35:29;;;;;;;2.57;2.10;;;;;;;20.76;41.92;99774.22;6814445;29;20231;-80
2021/10/07 15:38:51;;;;;;;2.90;1.90;;;;;;;20.25;42.03;99763.38;6817029;29;20217;-80
2021/10/07 15:42:13;;;;;;;2.00;1.90;;;;;;;20.38;41.42;99772.16;6822977;29;20232;-85
2021/10/07 15:45:35;;;;;;;2.00;1.80;;;;;;;20.31;41.21;99760.50;6837040;29;20241;-81
2021/10/07 15:48:57;;;;;;;2.50;2.20;;;;;;;20.14;41.54;99726.75;6810164;29;20211;-80
2021/10/07 15:52:21;;;;;;;2.53;2.33;;;;;;;19.99;41.73;99769.41;6803068;29;20221;-80
2021/10/07 15:55:44;;;;;;;2.40;2.00;;;;;;;20.44;40.45;99773.91;6814819;29;20226;-79
2021/10/07 15:59:05;;;;;;;2.90;2.13;;;;;;;19.87;42.12;99772.16;6814409;29;20220;-79
2021/10/07 16:02:27;;;;;;;3.23;2.33;;;;;;;20.07;42.12;99775.34;6814413;29;20237;-79
2021/10/07 16:05:53;;;;;;;3.60;1.87;;;;;;;19.96;42.22;99765.25;6826002;29;20225;-80
2021/10/07 16:09:15;;;;;;;2.40;2.20;;;;;;;20.02;43.46;99775.22;6829373;29;20213;-80
2021/10/07 16:12:38;;;;;;;3.50;1.87;;;;;;;19.67;44.02;99776.34;6790605;29;20231;-80
2021/10/07 16:16:00;;;;;;;2.07;1.97;;;;;;;19.68;43.93;99764.31;6800664;29;20221;-79
2021/10/07 16:19:21;;;;;;;2.23;1.80;;;;;;;19.67;44.19;99758.03;6814282;29;20710;-79
2021/10/07 16:22:43;;;;;;;1.97;1.87;;;;;;;19.87;44.49;99763.94;6813676;29;20239;-79
2021/10/07 16:26:06;;;;;;;2.40;2.20;;;;;;;19.90;43.83;99771.69;6812895;29;20219;-80
2021/10/07 16:29:29;;;;;;;2.27;2.07;;;;;;;19.97;44.55;99775.09;6813741;29;20233;-79
2021/10/07 16:32:50;;;;;;;2.47;2.30;;;;;;;20.05;44.01;99782.13;6815929;29;20626;-79
2021/10/07 16:36:12;;;;;;;4.73;2.30;;;;;;;19.58;44.45;99723.09;6814458;29;20202;-80
2021/10/07 16:39:34;;;;;;;2.30;2.10;;;;;;;19.99;43.88;99781.16;6811187;29;20233;-81
2021/10/07 16:42:56;;;;;;;2.73;2.53;;;;;;;20.04;43.67;99783.19;6805050;29;20233;-81
2021/10/07 16:46:19;;;;;;;3.57;2.60;;;;;;;19.93;44.42;99784.88;6817814;29;20311;-80
2021/10/07 16:49:40;;;;;;;3.77;2.20;;;;;;;19.43;47.06;99789.22;6818179;29;20221;-79
2021/10/07 16:53:02;;;;;;;5.53;2.20;;;;;;;19.07;47.63;99797.63;6818755;29;20242;-80
2021/10/07 16:56:24;;;;;;;2.57;2.13;;;;;;;19.25;47.45;99805.75;6819581;29;20221;-80
2021/10/07 16:59:45;;;;;;;2.40;2.20;;;;;;;18.97;48.04;99804.69;6819454;29;20207;-80
2021/10/07 17:03:08;;;;;;;2.77;2.03;;;;;;;18.78;47.82;99759.41;6826184;28;20252;-80
2021/10/07 17:06:30;;;;;;;3.43;2.37;;;;;;;18.56;49.04;99807.44;6830027;28;20622;-80
2021/10/07 17:09:52;;;;;;;3.27;2.43;;;;;;;18.26;49.90;99814.75;6831326;28;20213;-80
2021/10/07 17:13:14;;;;;;;4.00;2.60;;;;;;;18.95;49.15;99815.03;6832152;28;20236;-80
2021/10/07 17:16:35;;;;;;;2.80;2.10;;;;;;;18.81;49.00;99821.78;6818010;28;20200;-80
2021/10/07 17:19:59;;;;;;;3.37;2.33;;;;;;;18.84;48.51;99822.16;6813575;29;20216;-80
2021/10/07 17:23:20;;;;;;;3.83;2.30;;;;;;;18.48;50.22;99825.00;6816392;29;20229;-80
2021/10/07 17:26:42;;;;;;;4.03;2.90;;;;;;;18.29;50.30;99820.59;6823690;29;20207;-80
2021/10/07 17:30:04;;;;;;;3.50;2.53;;;;;;;18.05;50.98;99817.97;6817157;28;20211;-80
2021/10/07 17:33:26;;;;;;;4.53;2.63;;;;;;;17.94;51.21;99816.00;6797219;29;20234;-83
2021/10/07 17:36:49;;;;;;;4.50;4.10;;;;;;;18.22;50.15;99832.69;6806546;29;20242;-79
2021/10/07 17:40:13;;;;;;;10.00;5.50;;;;;;;17.90;50.85;99836.63;6810826;29;20666;-79
2021/10/07 17:43:34;;;;;;;5.33;4.73;;;;;;;17.88;51.31;99838.75;6809986;29;20304;-79
2021/10/07 17:46:56;;;;;;;4.90;4.40;;;;;;;17.89;51.67;99843.13;6811187;29;20266;-79
2021/10/07 17:50:17;;;;;;;5.63;4.70;;;;;;;17.55;52.72;99836.38;6811173;29;20212;-79
2021/10/07 17:53:40;;;;;;;7.37;5.63;;;;;;;17.59;53.34;99843.03;6830948;29;20873;-79
2021/10/07 17:57:02;;;;;;;4.60;4.20;;;;;;;17.49;53.74;99825.50;6821746;28;20659;-79
2021/10/07 18:00:24;;;;;;;4.33;3.37;;;;;;;16.94;53.75;99846.31;6820461;28;20208;-79
2021/10/07 18:03:45;;;;;;;3.20;2.97;;;;;;;17.17;52.60;99835.63;6813269;29;20227;-80
2021/10/07 18:07:07;;;;;;;4.30;2.87;;;;;;;17.12;53.25;99848.25;6824043;29;20652;-79
2021/10/07 18:10:30;;;;;;;3.53;3.23;;;;;;;16.95;53.47;99826.16;6819247;29;20207;-78
2021/10/07 18:13:53;;;;;;;4.17;3.40;;;;;;;16.76;54.45;99846.19;6786400;29;20225;-79
2021/10/07 18:17:15;;;;;;;5.43;3.77;;;;;;;16.75;55.08;99860.06;6796999;29;20204;-79
2021/10/07 18:20:37;;;;;;;4.57;3.80;;;;;;;16.90;55.14;99855.13;6808965;29;20606;-79
2021/10/07 18:23:59;;;;;;;4.60;4.10;;;;;;;16.72;55.53;99871.38;6809217;29;20212;-79
2021/10/07 18:27:24;;;;;;;4.90;3.77;;;;;;;16.88;54.72;99871.66;6821507;29;20208;-79
2021/10/07 18:30:46;;;;;;;4.63;3.73;;;;;;;16.40;55.63;99842.44;6803607;29;20239;-79
2021/10/07 18:34:08;;;;;;;4.13;3.73;;;;;;;16.62;55.18;99854.66;6808616;29;20285;-79
2021/10/07 18:37:30;;;;;;;4.47;3.80;;;;;;;16.50;54.92;99859.97;6830818;29;20229;-79
2021/10/07 18:40:51;;;;;;;5.97;3.97;;;;;;;16.30;55.35;99872.81;6808041;28;20277;-79
2021/10/07 18:44:16;;;;;;;5.33;4.83;;;;;;;16.22;55.99;99875.75;6813290;29;20241;-79
2021/10/07 18:47:38;;;;;;;4.93;4.27;;;;;;;16.14;55.95;99869.72;6808572;29;20265;-79
2021/10/07 18:51:00;;;;;;;5.63;4.23;;;;;;;15.97;55.85;99866.66;6808337;29;20692;-79
2021/10/07 18:54:22;;;;;;;7.20;3.90;;;;;;;15.87;56.79;99873.59;6807403;29;20232;-79
2021/10/07 18:57:44;;;;;;;4.10;3.80;;;;;;;15.64;56.84;99860.44;6797749;29;20200;-79
2021/10/07 19:01:07;;;;;;;5.80;4.27;;;;;;;15.72;56.90;99867.53;6782170;29;20231;-79
2021/10/07 19:04:28;;;;;;;5.17;4.30;;;;;;;15.52;56.96;99872.19;6807919;29;20218;-79
2021/10/07 19:07:50;;;;;;;7.37;4.47;;;;;;;15.40;57.39;99879.31;6833838;28;20230;-78
2021/10/07 19:11:12;;;;;;;4.83;4.43;;;;;;;15.42;57.45;99872.63;6823178;29;20226;-79
2021/10/07 19:14:33;;;;;;;4.50;4.07;;;;;;;14.61;59.44;99869.34;6807642;29;20257;-79
2021/10/07 19:17:56;;;;;;;5.47;3.80;;;;;;;14.98;59.27;99888.66;6808076;29;20205;-79
2021/10/07 19:21:18;;;;;;;7.83;4.73;;;;;;;15.35;58.49;99884.53;6807829;29;20234;-79
2021/10/07 19:24:40;;;;;;;5.03;3.60;;;;;;;15.37;57.71;99879.72;6799076;29;20218;-79
2021/10/07 19:28:02;;;;;;;3.80;3.50;;;;;;;15.42;57.21;99882.63;6808437;29;20232;-79